Time;durP1;ratioP1;P1;durP2;ratioP2;P2;SDS_P1;SDS_P2;PMS_P1;PMS_P2;Temp;Humidity;BMP_temperature;BMP_pressure;BME280_temperature;BME280_humidity;BME280_pressure;Samples;Min_cycle;Max_cycle;Signal;HPM_P1;HPM_P2
2023/03/27 00:02:13;;;;;;;17.67;9.40;;;;;;;;;;4993350;28;20030;-65
2023/03/27 00:04:40;;;;;;;15.02;7.47;;;;;;;;;;4993287;28;20034;-65
2023/03/27 00:07:05;;;;;;;13.50;7.72;;;;;;;;;;4993420;28;20039;-65
2023/03/27 00:09:31;;;;;;;13.48;8.00;;;;;;;;;;4992991;28;20037;-66
2023/03/27 00:11:59;;;;;;;14.38;7.60;;;;;;;;;;4975493;28;20113;-66
2023/03/27 00:14:25;;;;;;;7.22;5.82;;;;;;;;;;4993291;28;20074;-60
2023/03/27 00:16:50;;;;;;;10.15;5.72;;;;;;;;;;4975892;28;20034;-60
2023/03/27 00:19:15;;;;;;;8.40;5.45;;;;;;;;;;4993300;28;20153;-60
2023/03/27 00:21:43;;;;;;;10.02;5.35;;;;;;;;;;4975644;28;20414;-60
2023/03/27 00:24:09;;;;;;;7.47;4.85;;;;;;;;;;4993216;28;20027;-60
2023/03/27 00:26:36;;;;;;;6.40;5.28;;;;;;;;;;4993021;28;20037;-65
2023/03/27 00:29:03;;;;;;;7.72;5.03;;;;;;;;;;4975283;28;20019;-60
2023/03/27 00:31:29;;;;;;;7.30;5.43;;;;;;;;;;4992862;28;20031;-62
2023/03/27 00:33:54;;;;;;;9.02;5.70;;;;;;;;;;4992668;28;20113;-60
2023/03/27 00:36:27;;;;;;;8.27;5.13;;;;;;;;;;4975315;28;20046;-62
2023/03/27 00:38:52;;;;;;;10.23;5.03;;;;;;;;;;4992876;28;20072;-62
2023/03/27 00:41:19;;;;;;;7.63;5.30;;;;;;;;;;4975496;28;20092;-62
2023/03/27 00:43:47;;;;;;;6.47;4.65;;;;;;;;;;4992798;28;20045;-61
2023/03/27 00:46:30;;;;;;;8.57;5.22;;;;;;;;;;4992893;28;20022;-61
2023/03/27 00:48:57;;;;;;;6.18;4.57;;;;;;;;;;4960621;28;20105;-61
2023/03/27 00:51:23;;;;;;;7.47;4.88;;;;;;;;;;4979109;28;20470;-66
2023/03/27 00:53:50;;;;;;;6.55;4.45;;;;;;;;;;4996549;28;20476;-61
2023/03/27 00:56:16;;;;;;;9.50;4.93;;;;;;;;;;4962871;28;20764;-63
2023/03/27 00:58:45;;;;;;;5.80;4.65;;;;;;;;;;4996437;28;20030;-65
2023/03/27 01:01:12;;;;;;;8.07;4.03;;;;;;;;;;4996219;28;20094;-66
2023/03/27 01:03:40;;;;;;;6.97;4.28;;;;;;;;;;4995859;28;20034;-66
2023/03/27 01:06:05;;;;;;;5.93;4.47;;;;;;;;;;4996247;28;20022;-66
2023/03/27 01:08:32;;;;;;;7.25;4.45;;;;;;;;;;4978658;28;20027;-66
2023/03/27 01:11:13;;;;;;;5.30;3.70;;;;;;;;;;4962547;28;20022;-65
2023/03/27 01:13:38;;;;;;;5.07;4.38;;;;;;;;;;4995958;28;20534;-65
2023/03/27 01:16:30;;;;;;;6.38;4.60;;;;;;;;;;4995637;28;20142;-65
2023/03/27 01:19:04;;;;;;;5.93;4.13;;;;;;;;;;4948461;28;20054;-64
2023/03/27 01:21:33;;;;;;;3.85;3.20;;;;;;;;;;4974909;28;20047;-61
2023/03/27 01:24:30;;;;;;;4.10;3.40;;;;;;;;;;4974983;28;20038;-61
2023/03/27 01:27:02;;;;;;;6.57;4.10;;;;;;;;;;4974961;28;20042;-61
2023/03/27 01:29:38;;;;;;;5.93;4.30;;;;;;;;;;4975099;28;20027;-61
2023/03/27 01:32:21;;;;;;;5.80;3.75;;;;;;;;;;4974956;28;20430;-61
2023/03/27 01:34:53;;;;;;;5.13;4.05;;;;;;;;;;4975030;28;20026;-61
2023/03/27 01:37:31;;;;;;;7.90;4.20;;;;;;;;;;4974852;28;20039;-61
2023/03/27 01:40:06;;;;;;;7.20;5.35;;;;;;;;;;4975917;28;20078;-60
2023/03/27 01:42:43;;;;;;;8.23;5.55;;;;;;;;;;4975921;28;20043;-60
2023/03/27 01:45:18;;;;;;;8.65;5.15;;;;;;;;;;4974667;28;20053;-60
2023/03/27 01:48:02;;;;;;;8.18;4.78;;;;;;;;;;4974570;28;20038;-61
2023/03/27 01:50:48;;;;;;;6.68;5.00;;;;;;;;;;4975682;28;20075;-60
2023/03/27 01:53:17;;;;;;;6.93;4.50;;;;;;;;;;4974490;28;20031;-60
2023/03/27 01:55:46;;;;;;;4.95;4.38;;;;;;;;;;4958401;28;20743;-60
2023/03/27 01:58:14;;;;;;;7.85;4.68;;;;;;;;;;4953915;29;20019;-65
2023/03/27 02:00:43;;;;;;;6.75;5.15;;;;;;;;;;4954281;28;20014;-65
2023/03/27 02:03:13;;;;;;;8.05;5.07;;;;;;;;;;4955393;29;20496;-64
2023/03/27 02:05:45;;;;;;;8.53;4.53;;;;;;;;;;4955727;29;20038;-64
2023/03/27 02:08:14;;;;;;;7.30;4.93;;;;;;;;;;4955860;29;20046;-64
2023/03/27 02:10:45;;;;;;;8.18;4.95;;;;;;;;;;4955212;29;20023;-64
2023/03/27 02:13:25;;;;;;;6.60;4.95;;;;;;;;;;4954912;29;20035;-66
2023/03/27 02:15:53;;;;;;;10.10;5.85;;;;;;;;;;4939264;29;20027;-62
2023/03/27 02:18:25;;;;;;;10.68;6.40;;;;;;;;;;4954806;29;20062;-61
2023/03/27 02:20:53;;;;;;;8.95;5.75;;;;;;;;;;4954750;29;20054;-62
2023/03/27 02:23:18;;;;;;;8.20;6.07;;;;;;;;;;4956603;28;20039;-62
2023/03/27 02:25:44;;;;;;;8.80;6.15;;;;;;;;;;4954742;29;20020;-62
2023/03/27 02:28:28;;;;;;;15.15;7.60;;;;;;;;;;4954508;29;20375;-61
2023/03/27 02:31:17;;;;;;;12.88;7.45;;;;;;;;;;4954749;29;20031;-61
2023/03/27 02:33:45;;;;;;;15.18;7.53;;;;;;;;;;4954656;29;20035;-61
2023/03/27 02:36:32;;;;;;;12.95;6.38;;;;;;;;;;4954708;29;20027;-61
2023/03/27 02:39:02;;;;;;;8.90;5.22;;;;;;;;;;4961420;28;20026;-61
2023/03/27 02:41:33;;;;;;;10.30;5.25;;;;;;;;;;4973630;28;20035;-61
2023/03/27 02:44:31;;;;;;;5.55;4.15;;;;;;;;;;4974657;28;20443;-61
2023/03/27 02:47:22;;;;;;;9.13;5.20;;;;;;;;;;4974817;28;20044;-61
2023/03/27 02:49:51;;;;;;;8.25;4.57;;;;;;;;;;4974783;28;20038;-61
2023/03/27 02:52:22;;;;;;;5.72;3.97;;;;;;;;;;4973278;28;20105;-65
2023/03/27 02:54:51;;;;;;;5.60;3.80;;;;;;;;;;4973078;28;20050;-66
2023/03/27 02:57:18;;;;;;;5.18;4.00;;;;;;;;;;4973459;28;20030;-64
2023/03/27 03:00:24;;;;;;;5.80;4.03;;;;;;;;;;4933595;29;20043;-66
2023/03/27 03:03:19;;;;;;;9.00;5.38;;;;;;;;;;4965309;28;20562;-61
2023/03/27 03:05:54;;;;;;;5.82;4.15;;;;;;;;;;4972818;28;20156;-66
2023/03/27 03:08:21;;;;;;;4.55;3.58;;;;;;;;;;4974911;28;20118;-66
2023/03/27 03:10:47;;;;;;;7.22;3.88;;;;;;;;;;4973064;28;20011;-65
2023/03/27 03:13:16;;;;;;;4.70;3.47;;;;;;;;;;4982249;28;20023;-64
2023/03/27 03:15:42;;;;;;;4.47;3.78;;;;;;;;;;4973862;28;20485;-64
2023/03/27 03:18:07;;;;;;;6.18;3.78;;;;;;;;;;4975430;28;20034;-64
2023/03/27 03:20:34;;;;;;;4.85;3.90;;;;;;;;;;4976693;28;20057;-67
2023/03/27 03:23:02;;;;;;;4.18;3.45;;;;;;;;;;4981762;28;20113;-67
2023/03/27 03:25:29;;;;;;;4.15;3.60;;;;;;;;;;4983102;28;20426;-66
2023/03/27 03:28:00;;;;;;;3.83;3.33;;;;;;;;;;4982234;28;20069;-65
2023/03/27 03:30:26;;;;;;;;;;;;;;;;;;4981397;28;20792;-65
2023/03/27 03:33:03;;;;;;;5.43;3.53;;;;;;;;;;4982367;28;19978;-65
2023/03/27 03:35:29;;;;;;;4.30;3.45;;;;;;;;;;4983174;28;20047;-60
2023/03/27 03:37:56;;;;;;;5.47;3.75;;;;;;;;;;4981942;28;20022;-60
2023/03/27 03:40:22;;;;;;;4.78;3.33;;;;;;;;;;4981712;28;20028;-61
2023/03/27 03:42:53;;;;;;;3.97;3.40;;;;;;;;;;4979081;28;20027;-61
2023/03/27 03:45:23;;;;;;;4.07;3.13;;;;;;;;;;4981602;28;20504;-63
2023/03/27 03:47:48;;;;;;;4.90;3.00;;;;;;;;;;4984593;28;20031;-61
2023/03/27 03:50:14;;;;;;;3.88;2.78;;;;;;;;;;4983744;28;20041;-61
2023/03/27 03:52:40;;;;;;;3.33;3.08;;;;;;;;;;4981671;28;20034;-61
2023/03/27 03:55:06;;;;;;;3.00;2.70;;;;;;;;;;4983195;28;20052;-62
2023/03/27 03:57:32;;;;;;;3.72;2.75;;;;;;;;;;4980397;28;20014;-62
2023/03/27 04:00:11;;;;;;;4.32;2.60;;;;;;;;;;4982505;28;20031;-65
2023/03/27 04:02:42;;;;;;;4.18;2.72;;;;;;;;;;4982762;28;20043;-69
2023/03/27 04:05:12;;;;;;;2.65;2.45;;;;;;;;;;4982074;28;20039;-68
2023/03/27 04:07:39;;;;;;;4.70;3.05;;;;;;;;;;4981765;28;20078;-68
2023/03/27 04:10:38;;;;;;;3.40;2.88;;;;;;;;;;4967825;28;20027;-66
2023/03/27 04:13:08;;;;;;;3.17;2.92;;;;;;;;;;4970317;28;20034;-67
2023/03/27 04:15:38;;;;;;;5.47;3.25;;;;;;;;;;4973170;28;20027;-67
2023/03/27 04:18:06;;;;;;;5.72;3.90;;;;;;;;;;4973926;28;20031;-64
2023/03/27 04:20:33;;;;;;;5.30;3.70;;;;;;;;;;4978307;28;20051;-64
2023/03/27 04:23:02;;;;;;;4.65;3.53;;;;;;;;;;4977753;28;20094;-64
2023/03/27 04:25:29;;;;;;;3.97;3.60;;;;;;;;;;4977411;28;20034;-64
2023/03/27 04:27:56;;;;;;;4.55;3.85;;;;;;;;;;4979733;28;20041;-65
2023/03/27 04:30:30;;;;;;;6.13;3.83;;;;;;;;;;4980214;28;20062;-64
2023/03/27 04:33:17;;;;;;;4.10;3.60;;;;;;;;;;4997945;28;20037;-65
2023/03/27 04:36:03;;;;;;;5.00;3.63;;;;;;;;;;4956790;28;20171;-69
2023/03/27 04:38:38;;;;;;;4.13;3.25;;;;;;;;;;4976250;28;20366;-66
2023/03/27 04:41:04;;;;;;;3.92;3.53;;;;;;;;;;4976684;28;20194;-66
2023/03/27 04:43:30;;;;;;;4.82;4.30;;;;;;;;;;4976849;28;20032;-66
2023/03/27 04:45:55;;;;;;;5.75;4.25;;;;;;;;;;4976229;28;20501;-62
2023/03/27 04:48:21;;;;;;;5.03;4.30;;;;;;;;;;4975400;28;20034;-62
2023/03/27 04:50:50;;;;;;;5.55;5.05;;;;;;;;;;4962662;28;20018;-61
2023/03/27 04:53:45;;;;;;;14.27;11.35;;;;;;;;;;4976231;28;20049;-66
2023/03/27 04:56:11;;;;;;;13.60;11.23;;;;;;;;;;4974082;28;20031;-67
2023/03/27 04:58:40;;;;;;;18.90;13.77;;;;;;;;;;4973850;28;20081;-66
2023/03/27 05:01:13;;;;;;;;;;;;;;;;;;4979746;28;20022;-67
2023/03/27 05:04:02;;;;;;;12.98;10.98;;;;;;;;;;4973828;28;20004;-61
2023/03/27 05:06:50;;;;;;;8.88;7.85;;;;;;;;;;4987092;28;20387;-61
2023/03/27 05:09:16;;;;;;;8.80;7.95;;;;;;;;;;4972397;28;20019;-61
2023/03/27 05:11:43;;;;;;;11.23;8.10;;;;;;;;;;4977661;28;20110;-62
2023/03/27 05:14:08;;;;;;;19.83;13.73;;;;;;;;;;4975799;28;20081;-61
2023/03/27 05:16:40;;;;;;;11.93;9.05;;;;;;;;;;4975475;28;20487;-62
2023/03/27 05:19:05;;;;;;;46.47;23.40;;;;;;;;;;4976333;28;20121;-62
2023/03/27 05:21:46;;;;;;;;;;;;;;;;;;4976772;28;20050;-61
2023/03/27 05:24:12;;;;;;;75.07;32.90;;;;;;;;;;4976227;28;19914;-61
2023/03/27 05:26:38;;;;;;;50.05;23.65;;;;;;;;;;4975945;28;20046;-62
2023/03/27 05:29:04;;;;;;;34.33;16.20;;;;;;;;;;4975393;28;20027;-65
2023/03/27 05:31:32;;;;;;;27.60;15.70;;;;;;;;;;4975881;28;20034;-63
2023/03/27 05:34:19;;;;;;;37.15;17.23;;;;;;;;;;4975987;28;20043;-65
2023/03/27 05:36:45;;;;;;;127.50;43.85;;;;;;;;;;4960118;28;20031;-68
2023/03/27 05:39:11;;;;;;;197.20;72.25;;;;;;;;;;4975931;28;20122;-68
2023/03/27 05:41:40;;;;;;;146.57;53.22;;;;;;;;;;4975893;28;20027;-68
2023/03/27 05:44:06;;;;;;;150.65;55.25;;;;;;;;;;4975654;28;20113;-67
2023/03/27 05:46:38;;;;;;;43.03;19.80;;;;;;;;;;4975506;28;20371;-68
2023/03/27 05:49:13;;;;;;;19.13;10.68;;;;;;;;;;4975554;28;20394;-68
2023/03/27 05:51:40;;;;;;;25.60;13.23;;;;;;;;;;4975785;28;20486;-62
2023/03/27 05:54:06;;;;;;;56.63;24.52;;;;;;;;;;4975213;28;20110;-68
2023/03/27 05:56:42;;;;;;;28.73;14.57;;;;;;;;;;4960017;28;20043;-68
2023/03/27 05:59:08;;;;;;;92.32;36.78;;;;;;;;;;4975307;28;20602;-68
2023/03/27 06:01:35;;;;;;;42.60;20.13;;;;;;;;;;4974732;28;20475;-68
2023/03/27 06:04:01;;;;;;;43.60;19.52;;;;;;;;;;4975454;28;20042;-68
2023/03/27 06:06:48;;;;;;;20.45;11.50;;;;;;;;;;4974232;28;20054;-68
2023/03/27 06:09:13;;;;;;;23.70;13.63;;;;;;;;;;4973972;28;20117;-68
2023/03/27 06:11:43;;;;;;;109.60;47.97;;;;;;;;;;4974905;28;20023;-68
2023/03/27 06:17:46;;;;;;;32.83;21.25;;;;;;;;;;4992672;23;20057;-62
2023/03/27 06:20:14;;;;;;;28.50;17.60;;;;;;;;;;5003158;23;20081;-68
2023/03/27 06:22:54;;;;;;;24.52;17.75;;;;;;;;;;4973076;28;20023;-68
2023/03/27 06:25:25;;;;;;;23.25;15.50;;;;;;;;;;4972771;28;20038;-68
2023/03/27 06:27:51;;;;;;;22.23;16.23;;;;;;;;;;4973008;28;20027;-61
2023/03/27 06:30:18;;;;;;;17.73;13.20;;;;;;;;;;4956899;28;20030;-62
2023/03/27 06:32:59;;;;;;;22.90;15.25;;;;;;;;;;4973084;28;20474;-63
2023/03/27 06:35:27;;;;;;;32.53;19.58;;;;;;;;;;4973272;28;20039;-61
2023/03/27 06:38:01;;;;;;;102.60;56.67;;;;;;;;;;4959748;28;20027;-61
2023/03/27 06:40:28;;;;;;;150.40;80.22;;;;;;;;;;4975107;28;20086;-61
2023/03/27 06:42:58;;;;;;;79.72;54.38;;;;;;;;;;4974393;28;20038;-62
2023/03/27 06:45:31;;;;;;;38.30;20.92;;;;;;;;;;4973830;28;20394;-62
2023/03/27 06:48:16;;;;;;;49.92;27.75;;;;;;;;;;4975282;28;20450;-62
2023/03/27 06:50:43;;;;;;;25.55;19.63;;;;;;;;;;4975453;28;20034;-62
2023/03/27 06:53:09;;;;;;;15.35;12.05;;;;;;;;;;4958201;28;20021;-62
2023/03/27 06:55:41;;;;;;;37.72;20.15;;;;;;;;;;4958800;28;20030;-62
2023/03/27 06:58:07;;;;;;;9.95;8.85;;;;;;;;;;4975394;28;20199;-61
2023/03/27 07:00:34;;;;;;;13.57;10.30;;;;;;;;;;4975300;28;20038;-63
2023/03/27 07:03:18;;;;;;;45.85;25.40;;;;;;;;;;4975131;28;20023;-61
2023/03/27 07:06:04;;;;;;;12.98;9.93;;;;;;;;;;4954753;28;20416;-61
2023/03/27 07:08:41;;;;;;;34.63;20.83;;;;;;;;;;4973913;28;20031;-61
2023/03/27 07:11:07;;;;;;;24.50;14.05;;;;;;;;;;4973913;28;20041;-62
2023/03/27 07:13:34;;;;;;;10.77;7.75;;;;;;;;;;4973797;28;20027;-62
2023/03/27 07:16:03;;;;;;;37.60;18.55;;;;;;;;;;4958078;28;20026;-62
2023/03/27 07:18:31;;;;;;;22.23;13.15;;;;;;;;;;4957923;28;20035;-61
2023/03/27 07:20:57;;;;;;;48.20;20.58;;;;;;;;;;4957331;28;20097;-62
2023/03/27 07:23:23;;;;;;;25.10;14.88;;;;;;;;;;4957398;28;20034;-61
2023/03/27 07:26:01;;;;;;;14.30;10.77;;;;;;;;;;4957429;28;20053;-62
2023/03/27 07:28:46;;;;;;;34.40;16.05;;;;;;;;;;4974289;28;20110;-62
2023/03/27 07:31:12;;;;;;;21.90;15.50;;;;;;;;;;4957597;28;20042;-62
2023/03/27 07:33:39;;;;;;;25.17;16.42;;;;;;;;;;4974720;28;20096;-62
2023/03/27 07:36:06;;;;;;;31.40;18.27;;;;;;;;;;4974976;28;20038;-62
2023/03/27 07:38:40;;;;;;;14.05;9.82;;;;;;;;;;4957293;28;20085;-62
2023/03/27 07:41:22;;;;;;;34.53;24.15;;;;;;;;;;4957223;28;20031;-62
2023/03/27 07:43:57;;;;;;;18.70;13.48;;;;;;;;;;4974777;28;20464;-62
2023/03/27 07:46:22;;;;;;;27.88;18.83;;;;;;;;;;4957352;28;20122;-62
2023/03/27 07:48:49;;;;;;;35.63;24.58;;;;;;;;;;4957197;28;20109;-62
2023/03/27 07:51:18;;;;;;;15.52;12.32;;;;;;;;;;4957150;28;20077;-62
2023/03/27 07:53:44;;;;;;;14.00;10.63;;;;;;;;;;4957138;28;20022;-62
2023/03/27 07:56:22;;;;;;;34.05;18.10;;;;;;;;;;4957100;28;20482;-62
2023/03/27 07:58:52;;;;;;;45.22;19.27;;;;;;;;;;4941478;28;20035;-62
2023/03/27 08:01:19;;;;;;;59.08;24.77;;;;;;;;;;4957195;28;20065;-62
2023/03/27 08:03:47;;;;;;;31.02;15.40;;;;;;;;;;4957199;28;20030;-62
2023/03/27 08:06:15;;;;;;;26.65;13.90;;;;;;;;;;4957543;28;20039;-62
2023/03/27 08:08:41;;;;;;;17.30;10.20;;;;;;;;;;4957002;28;20018;-62
2023/03/27 08:11:07;;;;;;;33.45;17.52;;;;;;;;;;4974359;28;20398;-61
2023/03/27 08:13:37;;;;;;;20.63;10.23;;;;;;;;;;4974339;28;20041;-62
2023/03/27 08:16:07;;;;;;;15.73;9.95;;;;;;;;;;4957024;28;20031;-62
2023/03/27 08:18:36;;;;;;;17.67;9.37;;;;;;;;;;4956999;28;20122;-62
2023/03/27 08:21:04;;;;;;;6.90;5.45;;;;;;;;;;4956905;28;20290;-62
2023/03/27 08:23:32;;;;;;;18.27;12.38;;;;;;;;;;4956970;28;20494;-62
2023/03/27 08:26:06;;;;;;;18.55;12.65;;;;;;;;;;4974598;28;20042;-61
2023/03/27 08:28:39;;;;;;;10.90;9.05;;;;;;;;;;4956797;28;20410;-61
2023/03/27 08:31:10;;;;;;;11.65;8.77;;;;;;;;;;4956790;28;20027;-61
2023/03/27 08:33:35;;;;;;;6.70;5.88;;;;;;;;;;4956753;28;20034;-62
2023/03/27 08:36:01;;;;;;;10.68;8.93;;;;;;;;;;4974054;28;20035;-61
2023/03/27 08:38:31;;;;;;;10.85;7.35;;;;;;;;;;4956774;28;20027;-62
2023/03/27 08:41:03;;;;;;;8.20;7.25;;;;;;;;;;4956723;28;20025;-62
2023/03/27 08:43:38;;;;;;;5.70;4.38;;;;;;;;;;4956630;28;20044;-62
2023/03/27 08:46:18;;;;;;;8.43;6.35;;;;;;;;;;4971385;23;20078;-62
2023/03/27 08:48:49;;;;;;;8.65;7.53;;;;;;;;;;4989077;28;20397;-68
2023/03/27 08:51:38;;;;;;;18.55;11.68;;;;;;;;;;4956745;28;20069;-68
2023/03/27 08:54:18;;;;;;;19.17;13.10;;;;;;;;;;4956774;28;20034;-68
2023/03/27 08:56:44;;;;;;;17.75;13.52;;;;;;;;;;4956726;28;20394;-67
2023/03/27 08:59:17;;;;;;;26.00;15.70;;;;;;;;;;4980346;23;20050;-68
2023/03/27 09:01:52;;;;;;;16.58;12.90;;;;;;;;;;4974014;28;20023;-68
2023/03/27 09:04:52;;;;;;;17.13;14.23;;;;;;;;;;4973052;28;20039;-68
2023/03/27 09:07:18;;;;;;;11.20;9.43;;;;;;;;;;4973347;28;20018;-68
2023/03/27 09:10:23;;;;;;;16.55;13.07;;;;;;;;;;4975141;28;20038;-68
2023/03/27 09:13:10;;;;;;;16.92;13.25;;;;;;;;;;4976178;28;20110;-68
2023/03/27 09:15:40;;;;;;;17.23;13.90;;;;;;;;;;4976070;28;20035;-67
2023/03/27 09:18:11;;;;;;;18.08;13.48;;;;;;;;;;4959903;28;20026;-67
2023/03/27 09:20:43;;;;;;;15.90;11.90;;;;;;;;;;4975877;28;20027;-67
2023/03/27 09:23:12;;;;;;;19.13;14.48;;;;;;;;;;4975887;28;20121;-67
2023/03/27 09:26:01;;;;;;;14.18;11.90;;;;;;;;;;4977110;28;20089;-67
2023/03/27 09:28:55;;;;;;;18.38;14.77;;;;;;;;;;4961483;28;20038;-67
2023/03/27 09:31:45;;;;;;;23.08;18.08;;;;;;;;;;4976199;28;20039;-61
2023/03/27 09:34:13;;;;;;;23.38;18.77;;;;;;;;;;4975795;28;20027;-62
2023/03/27 09:36:39;;;;;;;20.42;16.45;;;;;;;;;;4976895;28;20050;-61
2023/03/27 09:39:14;;;;;;;17.98;13.23;;;;;;;;;;4975632;28;20022;-62
2023/03/27 09:41:41;;;;;;;17.38;14.48;;;;;;;;;;4975506;28;20042;-62
2023/03/27 09:44:42;;;;;;;26.15;16.58;;;;;;;;;;4975470;28;20039;-61
2023/03/27 09:47:15;;;;;;;15.85;10.02;;;;;;;;;;4920293;29;20032;-61
2023/03/27 09:49:45;;;;;;;11.93;8.75;;;;;;;;;;4936091;29;20046;-61
2023/03/27 09:52:33;;;;;;;10.35;7.95;;;;;;;;;;4935907;29;20031;-61
2023/03/27 09:55:29;;;;;;;30.98;13.80;;;;;;;;;;4957964;28;20047;-62
2023/03/27 09:57:59;;;;;;;;;;;;;;;;;;4978058;28;20027;-62
2023/03/27 10:00:27;;;;;;;12.65;9.57;;;;;;;;;;5010871;28;19920;-62
2023/03/27 10:03:06;;;;;;;13.20;11.38;;;;;;;;;;4978510;28;20031;-61
2023/03/27 10:05:35;;;;;;;18.35;10.43;;;;;;;;;;4978244;28;20034;-61
2023/03/27 10:08:18;;;;;;;17.70;11.10;;;;;;;;;;4978259;28;20019;-62
2023/03/27 10:11:05;;;;;;;23.88;12.32;;;;;;;;;;4978178;28;20029;-61
2023/03/27 10:13:49;;;;;;;19.27;10.95;;;;;;;;;;4978195;28;20039;-61
2023/03/27 10:16:19;;;;;;;17.27;10.40;;;;;;;;;;4978172;28;20508;-61
2023/03/27 10:18:58;;;;;;;29.23;22.75;;;;;;;;;;4978090;28;20121;-61
2023/03/27 10:21:26;;;;;;;19.27;11.40;;;;;;;;;;4977825;28;20038;-62
2023/03/27 10:23:58;;;;;;;17.38;10.73;;;;;;;;;;4994116;28;20030;-61
2023/03/27 10:26:54;;;;;;;16.15;9.73;;;;;;;;;;4978596;28;20065;-61
2023/03/27 10:29:22;;;;;;;19.20;10.75;;;;;;;;;;4977887;28;20026;-62
2023/03/27 10:31:49;;;;;;;15.95;10.10;;;;;;;;;;4993989;28;20034;-62
2023/03/27 10:34:31;;;;;;;13.55;8.55;;;;;;;;;;4963276;28;20030;-62
2023/03/27 10:37:00;;;;;;;12.63;8.00;;;;;;;;;;4995366;28;20478;-62
2023/03/27 10:39:27;;;;;;;13.77;8.70;;;;;;;;;;4978019;28;20018;-61
2023/03/27 10:42:14;;;;;;;11.45;7.25;;;;;;;;;;4977647;28;20034;-61
2023/03/27 10:44:46;;;;;;;10.52;6.10;;;;;;;;;;4977515;28;20485;-61
2023/03/27 10:47:18;;;;;;;8.60;6.18;;;;;;;;;;4995191;28;20030;-62
2023/03/27 10:49:48;;;;;;;7.60;5.00;;;;;;;;;;4977609;28;20030;-61
2023/03/27 10:52:31;;;;;;;7.75;5.78;;;;;;;;;;4995144;28;20108;-61
2023/03/27 10:55:31;;;;;;;7.28;4.80;;;;;;;;;;4977448;28;20030;-61
2023/03/27 10:57:58;;;;;;;5.57;3.58;;;;;;;;;;5009267;28;20069;-61
2023/03/27 11:00:33;;;;;;;6.47;3.95;;;;;;;;;;4977256;28;20038;-61
2023/03/27 11:03:24;;;;;;;7.38;4.32;;;;;;;;;;4977175;28;20034;-61
2023/03/27 11:05:57;;;;;;;5.80;4.20;;;;;;;;;;4977440;28;20129;-61
2023/03/27 11:08:32;;;;;;;3.97;3.22;;;;;;;;;;4994544;28;20034;-62
2023/03/27 11:11:01;;;;;;;5.20;3.40;;;;;;;;;;4977032;28;20465;-61
2023/03/27 11:13:32;;;;;;;5.30;3.63;;;;;;;;;;4977125;28;20478;-67
2023/03/27 11:16:25;;;;;;;4.97;3.22;;;;;;;;;;4977070;28;20022;-67
2023/03/27 11:19:09;;;;;;;3.60;3.00;;;;;;;;;;4994898;28;20049;-67
2023/03/27 11:21:57;;;;;;;3.17;2.97;;;;;;;;;;4979273;28;20091;-67
2023/03/27 11:24:28;;;;;;;4.40;3.10;;;;;;;;;;4976970;28;20038;-61
2023/03/27 11:27:22;;;;;;;3.72;2.60;;;;;;;;;;4977207;28;20072;-67
2023/03/27 11:29:52;;;;;;;3.33;2.95;;;;;;;;;;4976927;28;20034;-68
2023/03/27 11:32:32;;;;;;;2.65;2.45;;;;;;;;;;4976225;28;20033;-67
2023/03/27 11:35:07;;;;;;;3.70;2.50;;;;;;;;;;4963188;28;20046;-68
2023/03/27 11:37:54;;;;;;;2.35;2.15;;;;;;;;;;4976738;28;20556;-68
2023/03/27 11:40:44;;;;;;;3.30;2.85;;;;;;;;;;4976661;28;20053;-68
2023/03/27 11:43:10;;;;;;;4.68;3.38;;;;;;;;;;4976600;28;20022;-67
2023/03/27 11:45:59;;;;;;;3.92;2.10;;;;;;;;;;4994028;28;20038;-68
2023/03/27 11:48:31;;;;;;;3.08;2.60;;;;;;;;;;4960325;28;20077;-69
2023/03/27 11:51:03;;;;;;;3.95;2.20;;;;;;;;;;4979058;28;20030;-69
2023/03/27 11:53:30;;;;;;;1.88;1.77;;;;;;;;;;4963261;28;20054;-68
2023/03/27 11:56:12;;;;;;;2.63;2.30;;;;;;;;;;4994272;28;20038;-68
2023/03/27 11:58:52;;;;;;;5.45;2.72;;;;;;;;;;4976775;28;20042;-68
2023/03/27 12:01:48;;;;;;;2.38;2.17;;;;;;;;;;4993896;28;20422;-68
2023/03/27 12:04:13;;;;;;;3.00;1.70;;;;;;;;;;5000146;28;20047;-68
2023/03/27 12:07:20;;;;;;;2.93;2.63;;;;;;;;;;4963688;28;20065;-68
2023/03/27 12:09:58;;;;;;;3.25;2.10;;;;;;;;;;4976320;28;20042;-68
2023/03/27 12:12:45;;;;;;;2.45;2.00;;;;;;;;;;4979324;28;20548;-68
2023/03/27 12:15:30;;;;;;;3.42;2.40;;;;;;;;;;4976437;28;20038;-68
2023/03/27 12:18:08;;;;;;;3.55;2.80;;;;;;;;;;4976370;28;20034;-68
2023/03/27 12:20:35;;;;;;;2.28;1.95;;;;;;;;;;4976292;28;20065;-68
2023/03/27 12:23:07;;;;;;;2.30;2.10;;;;;;;;;;4993687;28;20402;-68
2023/03/27 12:25:51;;;;;;;3.42;2.40;;;;;;;;;;4993695;28;20474;-68
2023/03/27 12:28:35;;;;;;;2.08;1.92;;;;;;;;;;4993700;28;20141;-68
2023/03/27 12:31:33;;;;;;;2.42;2.08;;;;;;;;;;4976529;28;20382;-68
2023/03/27 12:34:19;;;;;;;3.10;2.00;;;;;;;;;;4992210;28;20486;-68
2023/03/27 12:36:46;;;;;;;2.30;2.10;;;;;;;;;;5001385;28;20395;-68
2023/03/27 12:39:23;;;;;;;3.67;1.95;;;;;;;;;;4976091;28;20022;-68
2023/03/27 12:41:49;;;;;;;2.25;2.10;;;;;;;;;;4976116;28;20023;-68
2023/03/27 12:44:30;;;;;;;12.35;6.55;;;;;;;;;;4978035;28;20043;-68
2023/03/27 12:47:26;;;;;;;6.67;4.00;;;;;;;;;;4979770;28;20026;-68
2023/03/27 12:50:18;;;;;;;1.83;1.50;;;;;;;;;;4963115;28;20276;-68
2023/03/27 12:52:44;;;;;;;1.52;1.42;;;;;;;;;;4964487;28;20038;-68
2023/03/27 12:55:16;;;;;;;4.85;3.05;;;;;;;;;;4980478;28;20072;-68
2023/03/27 12:57:50;;;;;;;2.17;1.70;;;;;;;;;;4997201;28;20394;-68
2023/03/27 13:00:26;;;;;;;2.63;2.42;;;;;;;;;;4980053;28;20124;-68
2023/03/27 13:02:52;;;;;;;1.77;1.65;;;;;;;;;;4980079;28;20492;-68
2023/03/27 13:05:33;;;;;;;1.60;1.50;;;;;;;;;;4979717;28;20034;-68
2023/03/27 13:08:09;;;;;;;1.70;1.60;;;;;;;;;;5012798;28;20023;-68
2023/03/27 13:11:11;;;;;;;2.08;1.70;;;;;;;;;;4997703;28;20037;-68
2023/03/27 13:13:56;;;;;;;2.17;1.92;;;;;;;;;;4964072;28;20040;-68
2023/03/27 13:16:40;;;;;;;1.67;1.55;;;;;;;;;;4979563;28;20097;-68
2023/03/27 13:19:06;;;;;;;1.90;1.75;;;;;;;;;;4979511;28;20515;-68
2023/03/27 13:21:56;;;;;;;3.80;2.42;;;;;;;;;;4979724;28;20023;-68
2023/03/27 13:24:24;;;;;;;2.30;2.10;;;;;;;;;;4979351;28;20034;-68
2023/03/27 13:27:13;;;;;;;2.90;1.80;;;;;;;;;;4979910;28;20033;-68
2023/03/27 13:29:39;;;;;;;2.75;1.98;;;;;;;;;;4979335;28;20037;-68
2023/03/27 13:32:18;;;;;;;2.85;1.98;;;;;;;;;;4979494;28;20030;-68
2023/03/27 13:35:08;;;;;;;2.47;2.00;;;;;;;;;;4996956;28;20118;-68
2023/03/27 13:37:36;;;;;;;2.50;1.83;;;;;;;;;;4995564;28;20034;-68
2023/03/27 13:40:18;;;;;;;3.67;3.00;;;;;;;;;;4979417;28;20474;-68
2023/03/27 13:42:44;;;;;;;;;;;;;;;;;;4979730;28;20026;-68
2023/03/27 13:45:24;;;;;;;2.83;2.53;;;;;;;;;;4995389;28;19917;-68
2023/03/27 13:48:35;;;;;;;2.08;1.67;;;;;;;;;;4993650;28;20552;-62
2023/03/27 13:51:10;;;;;;;2.53;2.33;;;;;;;;;;4978562;28;20105;-61
2023/03/27 13:53:49;;;;;;;2.97;2.47;;;;;;;;;;4980534;28;20026;-62
2023/03/27 13:56:43;;;;;;;2.17;2.03;;;;;;;;;;4990152;28;20039;-61
2023/03/27 13:59:27;;;;;;;2.25;1.92;;;;;;;;;;4978697;28;20043;-68
2023/03/27 14:02:03;;;;;;;3.40;2.40;;;;;;;;;;4978846;28;20026;-68
2023/03/27 14:04:33;;;;;;;3.45;1.88;;;;;;;;;;4978345;28;20064;-68
2023/03/27 14:07:31;;;;;;;2.25;1.90;;;;;;;;;;4962681;28;20122;-68
2023/03/27 14:10:05;;;;;;;2.40;2.20;;;;;;;;;;4962576;28;20430;-68
2023/03/27 14:13:01;;;;;;;2.33;2.22;;;;;;;;;;4963621;28;20089;-68
2023/03/27 14:15:36;;;;;;;1.95;1.60;;;;;;;;;;4955660;28;20038;-68
2023/03/27 14:18:14;;;;;;;2.00;1.90;;;;;;;;;;4956327;28;20462;-68
2023/03/27 14:20:44;;;;;;;2.65;2.30;;;;;;;;;;4974511;28;20078;-68
2023/03/27 14:23:27;;;;;;;2.05;1.95;;;;;;;;;;4973320;28;20390;-69
2023/03/27 14:26:01;;;;;;;2.75;2.45;;;;;;;;;;4954144;28;20612;-67
2023/03/27 14:28:32;;;;;;;3.85;2.30;;;;;;;;;;4953725;28;20498;-69
2023/03/27 14:31:04;;;;;;;1.98;1.63;;;;;;;;;;4959850;28;20037;-67
2023/03/27 14:34:00;;;;;;;2.33;2.13;;;;;;;;;;4993332;28;20037;-69
2023/03/27 14:36:28;;;;;;;2.55;2.40;;;;;;;;;;4976218;28;20038;-68
2023/03/27 14:39:10;;;;;;;2.75;2.10;;;;;;;;;;4979408;28;20100;-69
2023/03/27 14:41:44;;;;;;;3.45;2.35;;;;;;;;;;4977109;28;20084;-68
2023/03/27 14:44:12;;;;;;;2.65;2.30;;;;;;;;;;4977879;28;20022;-68
2023/03/27 14:46:39;;;;;;;3.78;3.30;;;;;;;;;;4977442;28;20482;-62
2023/03/27 14:49:11;;;;;;;2.77;2.27;;;;;;;;;;4962200;28;20359;-61
2023/03/27 14:51:40;;;;;;;3.08;2.25;;;;;;;;;;4977148;28;20270;-61
2023/03/27 14:54:12;;;;;;;2.28;2.10;;;;;;;;;;5008667;28;20038;-61
2023/03/27 14:56:48;;;;;;;1.73;1.55;;;;;;;;;;4994046;28;20466;-61
2023/03/27 14:59:33;;;;;;;2.60;2.25;;;;;;;;;;4977480;28;20061;-61
2023/03/27 15:02:04;;;;;;;2.40;2.20;;;;;;;;;;4976842;28;20529;-61
2023/03/27 15:04:32;;;;;;;2.05;1.85;;;;;;;;;;4976969;28;20381;-61
2023/03/27 15:07:17;;;;;;;2.33;2.10;;;;;;;;;;4976593;28;20112;-61
2023/03/27 15:10:04;;;;;;;1.90;1.80;;;;;;;;;;4977455;28;20477;-61
2023/03/27 15:12:55;;;;;;;;;;;;;;;;;;4979926;28;20529;-67
2023/03/27 15:15:29;;;;;;;1.63;1.52;;;;;;;;;;4993398;28;20008;-68
2023/03/27 15:17:58;;;;;;;1.98;1.88;;;;;;;;;;4995027;28;20026;-67
2023/03/27 15:20:26;;;;;;;2.20;2.00;;;;;;;;;;4977321;28;20034;-61
2023/03/27 15:23:07;;;;;;;2.80;1.80;;;;;;;;;;4977256;28;20444;-61